createdAt,value
2018-04-29T00:01:44.188Z,4.60
2018-04-29T00:04:12.051Z,4.17
2018-04-29T00:06:39.692Z,4.00
2018-04-29T00:09:07.528Z,4.70
2018-04-29T00:11:35.924Z,4.30
2018-04-29T00:14:03.589Z,4.47
2018-04-29T00:16:31.276Z,4.40
2018-04-29T00:18:58.908Z,4.60
2018-04-29T00:21:26.549Z,4.23
2018-04-29T00:23:55.011Z,3.83
2018-04-29T00:26:22.849Z,3.93
2018-04-29T00:28:50.711Z,4.03
2018-04-29T00:31:18.783Z,4.87
2018-04-29T00:33:46.656Z,4.07
2018-04-29T00:36:14.297Z,3.90
2018-04-29T00:38:42.443Z,4.30
2018-04-29T00:41:10.257Z,4.70
2018-04-29T00:43:38.119Z,4.70
2018-04-29T00:46:05.816Z,4.57
2018-04-29T00:48:34.956Z,4.97
2018-04-29T00:51:02.590Z,4.57
2018-04-29T00:53:31.204Z,4.50
2018-04-29T00:55:58.836Z,4.37
2018-04-29T00:58:27.248Z,4.93
2018-04-29T01:00:54.981Z,5.27
2018-04-29T01:03:22.620Z,4.73
2018-04-29T01:05:50.252Z,5.27
2018-04-29T01:08:18.427Z,5.67
2018-04-29T01:10:46.289Z,5.80
2018-04-29T01:13:13.964Z,4.87
2018-04-29T01:15:42.837Z,4.97
2018-04-29T01:18:10.711Z,4.93
2018-04-29T01:20:38.575Z,5.17
2018-04-29T01:23:06.315Z,5.37
2018-04-29T01:25:34.716Z,4.27
2018-04-29T01:28:02.481Z,5.17
2018-04-29T01:30:30.650Z,4.73
2018-04-29T01:32:58.292Z,4.90
2018-04-29T01:35:26.083Z,5.60
2018-04-29T01:37:54.254Z,5.07
2018-04-29T01:40:21.892Z,5.43
2018-04-29T01:42:49.680Z,5.17
2018-04-29T01:45:17.729Z,4.63
2018-04-29T01:47:45.516Z,5.00
2018-04-29T01:50:13.160Z,5.00
2018-04-29T01:52:41.251Z,4.53
2018-04-29T01:55:08.925Z,5.20
2018-04-29T01:57:36.584Z,5.67
2018-04-29T02:00:04.276Z,5.73
2018-04-29T02:02:31.904Z,5.60
2018-04-29T02:04:59.532Z,5.37
2018-04-29T02:07:27.529Z,4.87
2018-04-29T02:09:55.172Z,5.40
2018-04-29T02:12:22.805Z,5.03
2018-04-29T02:14:51.413Z,4.93
2018-04-29T02:17:19.200Z,5.17
2018-04-29T02:19:46.845Z,5.77
2018-04-29T02:22:14.704Z,4.97
2018-04-29T02:24:42.492Z,5.43
2018-04-29T02:27:10.132Z,5.20
2018-04-29T02:29:37.812Z,5.53
2018-04-29T02:32:05.442Z,5.67
2018-04-29T02:34:33.848Z,5.63
2018-04-29T02:37:01.701Z,5.53
2018-04-29T02:39:29.484Z,4.90
2018-04-29T02:41:57.124Z,5.10
2018-04-29T02:44:24.809Z,5.37
2018-04-29T02:46:52.677Z,5.70
2018-04-29T02:49:20.316Z,5.13
2018-04-29T02:51:48.381Z,5.87
2018-04-29T02:54:16.013Z,5.90
2018-04-29T02:56:44.655Z,5.90
2018-04-29T02:59:12.342Z,5.67
2018-04-29T03:01:40.023Z,5.60
2018-04-29T03:04:08.432Z,5.70
2018-04-29T03:06:36.109Z,6.40
2018-04-29T03:09:05.319Z,5.87
2018-04-29T03:11:32.953Z,6.57
2018-04-29T03:14:00.639Z,6.27
2018-04-29T03:16:28.503Z,7.00
2018-04-29T03:18:56.375Z,7.50
2018-04-29T03:21:24.060Z,7.00
2018-04-29T03:23:51.903Z,6.63
2018-04-29T03:26:19.544Z,6.60
2018-04-29T03:28:47.231Z,6.30
2018-04-29T03:31:14.868Z,6.20
2018-04-29T03:33:42.653Z,6.73
2018-04-29T03:36:10.492Z,6.13
2018-04-29T03:38:38.120Z,6.00
2018-04-29T03:41:05.757Z,6.27
2018-04-29T03:43:33.720Z,6.63
2018-04-29T03:46:01.352Z,7.10
2018-04-29T03:48:28.984Z,8.30
2018-04-29T03:50:57.615Z,8.07
2018-04-29T03:53:25.260Z,7.40
2018-04-29T03:55:52.893Z,8.20
2018-04-29T03:58:33.394Z,7.10
2018-04-29T04:01:12.953Z,8.77
2018-04-29T04:03:59.759Z,8.27
2018-04-29T04:06:27.410Z,7.90
2018-04-29T04:08:55.279Z,7.53
2018-04-29T04:11:23.329Z,7.90
2018-04-29T04:13:51.115Z,7.87
2018-04-29T04:16:18.755Z,6.70
2018-04-29T04:18:46.572Z,7.07
2018-04-29T04:21:14.205Z,7.27
2018-04-29T04:23:42.081Z,7.43
2018-04-29T04:26:09.936Z,7.37
2018-04-29T04:28:37.584Z,7.70
2018-04-29T04:31:05.355Z,7.90
2018-04-29T04:33:33.040Z,7.27
2018-04-29T04:36:00.974Z,6.60
2018-04-29T04:38:28.757Z,6.60
2018-04-29T04:40:56.696Z,6.60
2018-04-29T04:43:24.490Z,6.57
2018-04-29T04:45:52.356Z,5.23
2018-04-29T04:48:20.177Z,4.90
2018-04-29T04:50:48.576Z,5.93
2018-04-29T04:53:16.362Z,6.60
2018-04-29T04:55:44.227Z,5.57
2018-04-29T04:58:11.880Z,4.77
2018-04-29T05:00:39.692Z,5.43
2018-04-29T05:03:08.163Z,5.83
2018-04-29T05:05:36.556Z,5.30
2018-04-29T05:08:04.180Z,4.83
2018-04-29T05:10:32.038Z,5.30
2018-04-29T05:12:59.688Z,5.43
2018-04-29T05:15:27.318Z,5.33
2018-04-29T05:17:55.944Z,5.10
2018-04-29T05:20:23.588Z,4.93
2018-04-29T05:22:51.216Z,6.03
2018-04-29T05:25:19.040Z,5.77
2018-04-29T05:27:46.696Z,6.30
2018-04-29T05:30:14.459Z,6.23
2018-04-29T05:32:42.332Z,5.37
2018-04-29T05:35:10.195Z,6.37
2018-04-29T05:37:37.829Z,5.20
2018-04-29T05:40:05.661Z,5.50
2018-04-29T05:42:34.061Z,4.67
2018-04-29T05:45:02.461Z,4.63
2018-04-29T05:47:30.651Z,4.50
2018-04-29T05:49:58.292Z,5.23
2018-04-29T05:52:26.089Z,5.77
2018-04-29T05:54:54.912Z,5.40
2018-04-29T05:57:22.544Z,7.97
2018-04-29T05:59:50.941Z,4.70
2018-04-29T06:02:20.077Z,4.80
2018-04-29T06:04:48.485Z,4.17
2018-04-29T06:07:16.113Z,3.80
2018-04-29T06:09:43.809Z,4.53
2018-04-29T06:12:12.208Z,4.03
2018-04-29T06:14:39.844Z,4.03
2018-04-29T06:17:08.317Z,4.47
2018-04-29T06:19:36.716Z,4.10
2018-04-29T06:22:04.361Z,4.30
2018-04-29T06:24:32.991Z,3.30
2018-04-29T06:27:00.857Z,3.90
2018-04-29T06:29:28.726Z,3.40
2018-04-29T06:31:56.464Z,3.67
2018-04-29T06:34:24.849Z,3.60
2018-04-29T06:36:52.482Z,3.80
2018-04-29T06:39:20.933Z,3.33
2018-04-29T06:41:48.720Z,3.20
2018-04-29T06:44:17.120Z,4.17
2018-04-29T06:46:45.085Z,3.90
2018-04-29T06:49:12.673Z,3.17
2018-04-29T06:51:40.305Z,3.87
2018-04-29T06:54:07.993Z,5.00
2018-04-29T06:56:35.779Z,3.67
2018-04-29T06:59:03.408Z,3.33
2018-04-29T07:01:31.296Z,3.83
2018-04-29T07:03:58.936Z,4.03
2018-04-29T07:06:26.724Z,4.27
2018-04-29T07:08:54.413Z,7.93
2018-04-29T07:11:22.044Z,3.80
2018-04-29T07:13:49.681Z,3.73
2018-04-29T07:16:17.574Z,4.00
2018-04-29T07:18:45.436Z,6.97
2018-04-29T07:21:13.080Z,3.13
2018-04-29T07:23:40.762Z,3.70
2018-04-29T07:26:08.408Z,3.20
2018-04-29T07:28:36.305Z,3.47
2018-04-29T07:31:04.257Z,3.30
2018-04-29T07:33:31.893Z,3.30
2018-04-29T07:35:59.694Z,3.50
2018-04-29T07:38:27.380Z,5.47
2018-04-29T07:40:55.015Z,5.27
2018-04-29T07:43:22.656Z,4.50
2018-04-29T07:45:50.537Z,4.57
2018-04-29T07:48:18.345Z,4.40
2018-04-29T07:50:46.889Z,4.30
2018-04-29T07:53:14.932Z,6.10
2018-04-29T07:55:42.722Z,5.70
2018-04-29T07:58:10.372Z,7.40
2018-04-29T08:00:38.232Z,7.70
2018-04-29T08:03:05.864Z,5.57
2018-04-29T08:05:34.490Z,5.87
2018-04-29T08:08:02.563Z,6.10
2018-04-29T08:10:30.209Z,6.17
2018-04-29T08:12:57.837Z,5.67
2018-04-29T08:15:26.934Z,3.93
2018-04-29T08:17:55.545Z,6.10
2018-04-29T08:20:23.180Z,4.93
2018-04-29T08:22:51.764Z,3.20
2018-04-29T08:25:20.164Z,2.90
2018-04-29T08:27:47.955Z,2.27
2018-04-29T08:30:15.817Z,2.50
2018-04-29T08:32:43.460Z,3.23
2018-04-29T08:35:11.248Z,2.40
2018-04-29T08:37:39.046Z,2.00
2018-04-29T08:40:07.459Z,2.50
2018-04-29T08:42:35.100Z,2.33
2018-04-29T08:45:03.817Z,2.20
2018-04-29T08:47:31.444Z,2.40
2018-04-29T08:49:59.072Z,2.17
2018-04-29T08:52:26.896Z,2.20
2018-04-29T08:54:54.568Z,2.37
2018-04-29T08:57:22.354Z,2.60
2018-04-29T08:59:50.304Z,2.40
2018-04-29T09:02:17.940Z,2.43
2018-04-29T09:04:46.336Z,1.90
2018-04-29T09:07:14.210Z,2.47
2018-04-29T09:09:41.996Z,2.43
2018-04-29T09:12:09.637Z,2.30
2018-04-29T09:14:37.722Z,2.73
2018-04-29T09:17:05.365Z,2.20
2018-04-29T09:19:32.998Z,2.37
2018-04-29T09:22:01.629Z,2.50
2018-04-29T09:24:29.502Z,2.00
2018-04-29T09:26:57.151Z,2.00
2018-04-29T09:29:25.130Z,2.20
2018-04-29T09:31:52.773Z,2.23
2018-04-29T09:34:20.558Z,2.13
2018-04-29T09:36:48.411Z,2.07
2018-04-29T09:39:16.186Z,2.20
2018-04-29T09:41:43.828Z,2.10
2018-04-29T09:44:11.720Z,1.73
2018-04-29T09:46:39.576Z,1.90
2018-04-29T09:49:07.340Z,1.70
2018-04-29T09:51:35.288Z,2.20
2018-04-29T09:54:02.934Z,2.00
2018-04-29T09:56:32.021Z,2.17
2018-04-29T09:59:00.463Z,1.73
2018-04-29T10:01:28.121Z,2.20
2018-04-29T10:03:55.769Z,1.90
2018-04-29T10:06:23.620Z,2.27
2018-04-29T10:08:51.249Z,2.00
2018-04-29T10:11:19.652Z,2.30
2018-04-29T10:13:47.328Z,2.43
2018-04-29T10:16:15.103Z,5.57
2018-04-29T10:18:42.764Z,2.63
2018-04-29T10:21:10.608Z,2.53
2018-04-29T10:23:38.254Z,3.20
2018-04-29T10:26:06.654Z,2.43
2018-04-29T10:28:34.517Z,2.93
2018-04-29T10:31:02.401Z,2.47
2018-04-29T10:33:30.274Z,2.57
2018-04-29T10:35:57.961Z,2.90
2018-04-29T10:38:25.593Z,2.83
2018-04-29T10:40:53.359Z,3.07
2018-04-29T10:43:21.297Z,3.20
2018-04-29T10:45:49.095Z,2.73
2018-04-29T10:48:16.736Z,3.07
2018-04-29T10:50:44.600Z,3.17
2018-04-29T10:53:12.386Z,3.30
2018-04-29T10:55:40.030Z,2.53
2018-04-29T10:58:07.914Z,2.77
2018-04-29T11:00:35.556Z,3.17
2018-04-29T11:03:03.184Z,3.40
2018-04-29T11:05:31.629Z,2.87
2018-04-29T11:07:59.256Z,3.30
2018-04-29T11:10:27.042Z,2.67
2018-04-29T11:12:54.728Z,3.30
2018-04-29T11:15:22.571Z,2.87
2018-04-29T11:17:50.434Z,2.70
2018-04-29T11:20:18.124Z,2.80
2018-04-29T11:22:47.268Z,2.87
2018-04-29T11:25:15.061Z,2.47
2018-04-29T11:27:42.741Z,2.67
2018-04-29T11:30:10.581Z,2.60
2018-04-29T11:32:38.220Z,3.30
2018-04-29T11:35:05.914Z,2.70
2018-04-29T11:37:33.544Z,2.97
2018-04-29T11:40:01.270Z,2.87
2018-04-29T11:42:30.125Z,2.83
2018-04-29T11:44:57.781Z,3.07
2018-04-29T11:47:25.412Z,3.03
2018-04-29T11:49:53.417Z,2.50
2018-04-29T11:52:21.057Z,2.90
2018-04-29T11:54:48.689Z,3.17
2018-04-29T11:57:17.324Z,3.07
2018-04-29T11:59:45.016Z,2.60
2018-04-29T12:02:12.672Z,2.70
2018-04-29T12:04:40.633Z,2.50
2018-04-29T12:07:08.273Z,2.97
2018-04-29T12:09:36.143Z,2.47
2018-04-29T12:12:04.127Z,2.73
2018-04-29T12:14:31.770Z,2.77
2018-04-29T12:16:59.396Z,2.70
2018-04-29T12:19:27.849Z,2.37
2018-04-29T12:21:55.677Z,2.43
2018-04-29T12:24:23.317Z,2.70
2018-04-29T12:26:50.997Z,2.37
2018-04-29T12:29:18.629Z,2.20
2018-04-29T12:31:46.265Z,2.53
2018-04-29T12:34:14.064Z,2.50
2018-04-29T12:36:41.701Z,2.60
2018-04-29T12:39:10.173Z,2.67
2018-04-29T12:41:38.810Z,2.40
2018-04-29T12:44:06.452Z,2.33
2018-04-29T12:46:35.814Z,2.17
2018-04-29T12:49:03.617Z,2.10
2018-04-29T12:51:31.402Z,2.63
2018-04-29T12:53:59.040Z,2.10
2018-04-29T12:56:27.080Z,2.33
2018-04-29T12:58:54.714Z,2.73
2018-04-29T13:01:23.247Z,2.80
2018-04-29T13:03:50.932Z,3.00
2018-04-29T13:06:18.577Z,2.33
2018-04-29T13:08:46.429Z,1.97
2018-04-29T13:11:14.212Z,2.37
2018-04-29T13:13:41.848Z,2.30
2018-04-29T13:16:10.207Z,2.00
2018-04-29T13:18:38.100Z,2.17
2018-04-29T13:21:05.749Z,2.47
2018-04-29T13:23:33.376Z,2.00
2018-04-29T13:26:02.007Z,2.00
2018-04-29T13:28:29.650Z,2.20
2018-04-29T13:30:57.301Z,2.27
2018-04-29T13:33:25.276Z,2.50
2018-04-29T13:35:53.065Z,2.87
2018-04-29T13:38:20.704Z,2.33
2018-04-29T13:40:48.700Z,2.10
2018-04-29T13:43:16.349Z,2.30
2018-04-29T13:45:43.985Z,2.17
2018-04-29T13:48:11.886Z,2.67
2018-04-29T13:50:39.541Z,2.57
2018-04-29T13:53:07.173Z,4.07
2018-04-29T13:55:35.872Z,2.87
2018-04-29T13:58:03.510Z,2.33
2018-04-29T14:00:31.912Z,2.50
2018-04-29T14:02:59.605Z,2.30
2018-04-29T14:05:27.462Z,1.90
2018-04-29T14:07:55.332Z,2.07
2018-04-29T14:10:23.121Z,2.30
2018-04-29T14:12:51.462Z,2.03
2018-04-29T14:15:19.238Z,2.20
2018-04-29T14:17:47.624Z,3.58
2018-04-29T14:20:15.257Z,2.50
2018-04-29T14:22:42.884Z,2.37
2018-04-29T14:25:11.622Z,2.50
2018-04-29T14:27:39.287Z,2.75
2018-04-29T14:30:06.924Z,4.37
2018-04-29T14:32:35.917Z,2.60
2018-04-29T14:35:03.545Z,2.80
2018-04-29T14:37:31.948Z,2.57
2018-04-29T14:39:59.816Z,2.37
2018-04-29T14:42:27.448Z,2.67
2018-04-29T14:44:55.848Z,3.10
2018-04-29T14:47:23.832Z,2.20
2018-04-29T14:49:51.619Z,2.00
2018-04-29T14:52:19.481Z,1.60
2018-04-29T14:54:47.531Z,2.33
2018-04-29T14:57:15.317Z,3.03
2018-04-29T14:59:42.960Z,3.00
2018-04-29T15:02:10.652Z,3.60
2018-04-29T15:04:38.309Z,7.57
2018-04-29T15:07:05.976Z,6.97
2018-04-29T15:09:34.037Z,2.62
2018-04-29T15:12:02.477Z,6.00
2018-04-29T15:14:30.141Z,4.05
2018-04-29T15:16:58.233Z,2.97
2018-04-29T15:19:32.053Z,2.33
2018-04-29T15:21:59.752Z,2.67
2018-04-29T15:24:28.401Z,2.55
2018-04-29T15:26:56.065Z,2.40
2018-04-29T15:29:23.748Z,2.30
2018-04-29T15:31:51.593Z,2.50
2018-04-29T15:34:19.457Z,1.73
2018-04-29T15:36:47.505Z,1.87
2018-04-29T15:39:15.137Z,3.10
2018-04-29T15:41:42.802Z,2.97
2018-04-29T15:44:11.652Z,2.27
2018-04-29T15:46:39.309Z,2.27
2018-04-29T15:49:06.960Z,2.00
2018-04-29T15:51:34.804Z,3.40
2018-04-29T15:54:02.698Z,3.72
2018-04-29T15:56:30.337Z,2.00
2018-04-29T15:58:58.016Z,3.13
2018-04-29T16:01:25.880Z,2.57
2018-04-29T16:03:53.521Z,2.80
2018-04-29T16:06:21.233Z,2.22
2018-04-29T16:08:48.875Z,1.63
2018-04-29T16:11:16.628Z,2.03
2018-04-29T16:13:44.455Z,2.23
2018-04-29T16:16:12.863Z,2.20
2018-04-29T16:18:40.751Z,3.22
2018-04-29T16:21:08.800Z,2.40
2018-04-29T16:23:36.587Z,2.20
2018-04-29T16:26:04.232Z,3.60
2018-04-29T16:28:32.321Z,2.47
2018-04-29T16:31:00.185Z,2.30
2018-04-29T16:33:27.824Z,3.00
2018-04-29T16:35:55.820Z,2.10
2018-04-29T16:38:23.461Z,2.10
2018-04-29T16:40:51.177Z,2.00
2018-04-29T16:43:20.748Z,2.50
2018-04-29T16:45:48.388Z,2.20
2018-04-29T16:48:16.168Z,2.20
2018-04-29T16:50:44.018Z,2.33
2018-04-29T16:53:11.805Z,2.00
2018-04-29T16:55:39.668Z,2.40
2018-04-29T16:58:07.620Z,3.20
2018-04-29T17:00:35.403Z,3.60
2018-04-29T17:03:03.069Z,3.37
2018-04-29T17:05:30.744Z,3.03
2018-04-29T17:07:58.396Z,2.43
2018-04-29T17:10:26.251Z,2.00
2018-04-29T17:12:54.000Z,1.93
2018-04-29T17:15:22.377Z,3.00
2018-04-29T17:17:50.009Z,4.47
2018-04-29T17:20:18.824Z,2.77
2018-04-29T17:22:46.714Z,2.60
2018-04-29T17:25:14.361Z,2.70
2018-04-29T17:27:42.188Z,3.30
2018-04-29T17:30:10.593Z,4.40
2018-04-29T17:32:38.279Z,3.83
2018-04-29T17:35:06.353Z,3.70
2018-04-29T17:37:34.001Z,2.50
2018-04-29T17:40:01.632Z,2.53
2018-04-29T17:42:29.316Z,2.90
2018-04-29T17:44:57.099Z,2.60
2018-04-29T17:47:24.805Z,2.17
2018-04-29T17:49:53.448Z,2.20
2018-04-29T17:52:21.089Z,2.20
2018-04-29T17:54:48.717Z,2.53
2018-04-29T17:57:17.337Z,2.07
2018-04-29T17:59:45.119Z,2.27
2018-04-29T18:02:12.760Z,2.10
2018-04-29T18:04:40.635Z,1.73
2018-04-29T18:07:09.112Z,1.83
2018-04-29T18:09:37.541Z,2.03
2018-04-29T18:12:06.058Z,2.13
2018-04-29T18:14:33.700Z,2.13
2018-04-29T18:17:02.143Z,2.20
2018-04-29T18:19:29.832Z,2.07
2018-04-29T18:21:58.233Z,2.33
2018-04-29T18:24:25.868Z,2.00
2018-04-29T18:26:54.467Z,2.67
2018-04-29T18:29:22.875Z,2.23
2018-04-29T18:31:50.512Z,6.00
2018-04-29T18:34:19.058Z,2.10
2018-04-29T18:36:46.700Z,2.40
2018-04-29T18:39:14.337Z,2.90
2018-04-29T18:41:42.223Z,2.40
2018-04-29T18:44:09.869Z,2.47
2018-04-29T18:46:37.651Z,2.30
2018-04-29T18:49:05.493Z,2.27
2018-04-29T18:51:33.464Z,2.10
2018-04-29T18:54:00.965Z,2.23
2018-04-29T18:56:28.741Z,2.33
2018-04-29T18:58:56.372Z,2.27
2018-04-29T19:01:24.005Z,2.47
2018-04-29T19:03:51.697Z,2.27
2018-04-29T19:06:19.324Z,1.80
2018-04-29T19:08:47.120Z,2.00
2018-04-29T19:11:14.809Z,1.67
2018-04-29T19:13:43.213Z,2.30
2018-04-29T19:16:11.609Z,2.17
2018-04-29T19:18:39.485Z,2.30
2018-04-29T19:21:07.116Z,2.70
2018-04-29T19:23:35.525Z,2.50
2018-04-29T19:26:03.769Z,3.83
2018-04-29T19:28:32.169Z,2.00
2018-04-29T19:30:59.801Z,2.50
2018-04-29T19:33:28.338Z,2.50
2018-04-29T19:35:56.037Z,2.47
2018-04-29T19:38:24.625Z,3.00
2018-04-29T19:40:53.253Z,2.70
2018-04-29T19:43:20.877Z,3.03
2018-04-29T19:45:49.317Z,2.93
2018-04-29T19:48:18.204Z,2.57
2018-04-29T19:50:46.001Z,2.93
2018-04-29T19:53:14.576Z,3.07
2018-04-29T19:55:43.546Z,2.83
2018-04-29T19:58:11.218Z,2.30
2018-04-29T20:00:38.852Z,2.30
2018-04-29T20:03:06.527Z,2.20
2018-04-29T20:05:34.179Z,1.67
2018-04-29T20:08:01.953Z,1.60
2018-04-29T20:10:30.000Z,1.50
2018-04-29T20:12:57.629Z,1.47
2018-04-29T20:15:26.033Z,1.30
2018-04-29T20:17:53.720Z,1.10
2018-04-29T20:20:21.348Z,1.10
2018-04-29T20:22:48.977Z,1.60
2018-04-29T20:25:16.823Z,1.30
2018-04-29T20:27:44.456Z,1.30
2018-04-29T20:30:12.092Z,1.50
2018-04-29T20:32:55.545Z,1.10
2018-04-29T20:35:23.329Z,1.27
2018-04-29T20:37:51.020Z,1.20
2018-04-29T20:40:19.592Z,1.40
2018-04-29T20:42:47.230Z,1.40
2018-04-29T20:45:15.112Z,1.17
2018-04-29T20:47:42.809Z,1.50
2018-04-29T20:50:10.449Z,1.50
2018-04-29T20:52:38.084Z,2.00
2018-04-29T20:55:05.937Z,1.50
2018-04-29T20:57:33.632Z,1.77
2018-04-29T21:00:01.326Z,2.23
2018-04-29T21:02:30.053Z,2.63
2018-04-29T21:04:57.754Z,2.37
2018-04-29T21:07:25.603Z,2.37
2018-04-29T21:09:53.540Z,2.20
2018-04-29T21:12:21.169Z,1.73
2018-04-29T21:14:49.704Z,1.27
2018-04-29T21:17:17.603Z,1.50
2018-04-29T21:19:45.442Z,1.50
2018-04-29T21:22:13.089Z,1.43
2018-04-29T21:24:40.948Z,1.70
2018-04-29T21:27:08.588Z,1.50
2018-04-29T21:29:37.219Z,3.00
2018-04-29T21:32:04.979Z,1.80
2018-04-29T21:34:32.608Z,1.13
2018-04-29T21:37:00.254Z,1.57
2018-04-29T21:39:28.712Z,1.37
2018-04-29T21:41:56.345Z,1.30
2018-04-29T21:44:24.215Z,1.20
2018-04-29T21:46:51.912Z,1.10
2018-04-29T21:49:19.544Z,1.30
2018-04-29T21:51:47.299Z,1.40
2018-04-29T21:54:15.200Z,1.17
2018-04-29T21:56:42.840Z,1.30
2018-04-29T21:59:10.480Z,1.37
2018-04-29T22:01:38.361Z,1.23
2018-04-29T22:04:06.005Z,1.40
2018-04-29T22:06:33.633Z,1.67
2018-04-29T22:09:02.337Z,1.37
2018-04-29T22:11:29.965Z,1.37
2018-04-29T22:13:58.369Z,1.50
2018-04-29T22:16:26.375Z,1.93
2018-04-29T22:18:54.016Z,1.43
2018-04-29T22:21:21.652Z,1.67
2018-04-29T22:23:51.401Z,1.30
2018-04-29T22:26:19.044Z,1.30
2018-04-29T22:28:46.731Z,1.67
2018-04-29T22:31:14.405Z,1.30
2018-04-29T22:33:42.037Z,1.30
2018-04-29T22:36:09.816Z,2.30
2018-04-29T22:38:37.788Z,1.43
2018-04-29T22:41:05.651Z,1.60
2018-04-29T22:43:33.315Z,1.40
2018-04-29T22:46:01.090Z,1.50
2018-04-29T22:48:28.721Z,1.40
2018-04-29T22:50:56.348Z,1.30
2018-04-29T22:53:24.794Z,1.43
2018-04-29T22:55:52.424Z,1.40
2018-04-29T22:58:20.206Z,1.60
2018-04-29T23:00:47.893Z,1.40
2018-04-29T23:03:15.524Z,1.47
2018-04-29T23:05:43.152Z,1.83
2018-04-29T23:08:11.590Z,1.43
2018-04-29T23:10:39.269Z,1.30
2018-04-29T23:13:07.669Z,1.70
2018-04-29T23:15:36.111Z,1.43
2018-04-29T23:18:03.777Z,1.40
2018-04-29T23:20:31.620Z,1.53
2018-04-29T23:22:59.485Z,1.57
2018-04-29T23:25:27.125Z,1.30
2018-04-29T23:27:54.749Z,1.50
2018-04-29T23:30:23.198Z,1.60
2018-04-29T23:32:50.884Z,1.70
2018-04-29T23:35:19.308Z,1.63
2018-04-29T23:37:46.980Z,1.47
2018-04-29T23:40:14.754Z,1.60
2018-04-29T23:42:42.389Z,1.60
2018-04-29T23:45:10.061Z,1.60
2018-04-29T23:47:37.781Z,1.70
2018-04-29T23:50:05.357Z,1.80
2018-04-29T23:52:33.813Z,1.70
2018-04-29T23:55:01.465Z,2.07
2018-04-29T23:57:29.897Z,3.20
2018-04-29T23:59:57.574Z,2.67
